createdAt,value
2018-12-11T00:01:45.689Z,93949.32
2018-12-11T00:04:13.118Z,93940.89
2018-12-11T00:06:40.524Z,93951.79
2018-12-11T00:09:07.895Z,93953.86
2018-12-11T00:11:35.311Z,93948.33
2018-12-11T00:14:02.817Z,93950.45
2018-12-11T00:16:30.188Z,93960.03
2018-12-11T00:18:57.566Z,93952.02
2018-12-11T00:21:24.989Z,93957.90
2018-12-11T00:23:52.393Z,93954.09
2018-12-11T00:26:19.784Z,93953.20
2018-12-11T00:28:47.167Z,93946.00
2018-12-11T00:31:14.543Z,93942.16
2018-12-11T00:33:41.928Z,93935.38
2018-12-11T00:36:09.335Z,93942.22
2018-12-11T00:38:36.717Z,93939.25
2018-12-11T00:41:04.142Z,93936.73
2018-12-11T00:43:31.523Z,93939.73
2018-12-11T00:45:58.891Z,93938.44
2018-12-11T00:48:26.261Z,93937.98
2018-12-11T00:50:53.656Z,93934.20
2018-12-11T00:53:21.042Z,93942.55
2018-12-11T00:55:48.399Z,93933.34
2018-12-11T00:58:15.806Z,93933.43
2018-12-11T01:00:43.213Z,93935.95
2018-12-11T01:03:10.616Z,93932.30
2018-12-11T01:05:38.015Z,93933.52
2018-12-11T01:08:05.407Z,93934.30
2018-12-11T01:10:32.771Z,93931.38
2018-12-11T01:13:00.199Z,93939.39
2018-12-11T01:15:27.578Z,93936.88
2018-12-11T01:17:54.978Z,93938.21
2018-12-11T01:20:22.463Z,93938.66
2018-12-11T01:22:49.846Z,93936.16
2018-12-11T01:25:17.211Z,93937.45
2018-12-11T01:27:44.590Z,93946.70
2018-12-11T01:30:12.066Z,93939.97
2018-12-11T01:32:40.847Z,93946.77
2018-12-11T01:35:08.316Z,93946.38
2018-12-11T01:37:36.496Z,93948.89
2018-12-11T01:40:04.423Z,93950.13
2018-12-11T01:42:31.828Z,93958.14
2018-12-11T01:44:59.211Z,93957.75
2018-12-11T01:47:26.608Z,93960.66
2018-12-11T01:49:54.062Z,93964.44
2018-12-11T01:52:21.489Z,93969.48
2018-12-11T01:54:48.909Z,93965.76
2018-12-11T01:57:16.398Z,93965.28
2018-12-11T01:59:43.858Z,93956.45
2018-12-11T02:02:11.238Z,93964.05
2018-12-11T02:04:38.669Z,93965.77
2018-12-11T02:07:06.087Z,93966.63
2018-12-11T02:09:33.492Z,93965.78
2018-12-11T02:12:00.908Z,93969.64
2018-12-11T02:14:28.273Z,93962.89
2018-12-11T02:16:55.784Z,93969.64
2018-12-11T02:19:23.183Z,93957.87
2018-12-11T02:21:50.782Z,93972.55
2018-12-11T02:24:18.182Z,93970.43
2018-12-11T02:26:45.543Z,93968.28
2018-12-11T02:29:13.515Z,93969.98
2018-12-11T02:31:40.870Z,93967.52
2018-12-11T02:34:08.859Z,93970.88
2018-12-11T02:36:36.277Z,93966.25
2018-12-11T02:39:06.096Z,93967.09
2018-12-11T02:41:33.507Z,93971.30
2018-12-11T02:44:00.864Z,93978.42
2018-12-11T02:46:28.303Z,93977.20
2018-12-11T02:48:55.666Z,93975.92
2018-12-11T02:51:23.105Z,93967.07
2018-12-11T02:53:50.467Z,93965.44
2018-12-11T02:56:17.872Z,93966.70
2018-12-11T02:58:45.425Z,93972.93
2018-12-11T03:01:13.661Z,93962.86
2018-12-11T03:03:41.050Z,93973.38
2018-12-11T03:06:08.451Z,93974.66
2018-12-11T03:08:35.853Z,93978.00
2018-12-11T03:11:03.248Z,93979.70
2018-12-11T03:13:30.644Z,93974.66
2018-12-11T03:15:58.047Z,93969.59
2018-12-11T03:18:25.421Z,93968.75
2018-12-11T03:20:52.955Z,93961.98
2018-12-11T03:23:20.369Z,93973.80
2018-12-11T03:25:47.823Z,93970.80
2018-12-11T03:28:15.209Z,93972.50
2018-12-11T03:30:42.732Z,93967.48
2018-12-11T03:33:11.214Z,93974.64
2018-12-11T03:35:38.569Z,93973.33
2018-12-11T03:38:06.046Z,93979.58
2018-12-11T03:40:33.505Z,93978.39
2018-12-11T03:43:00.902Z,93982.13
2018-12-11T03:45:28.262Z,93975.80
2018-12-11T03:47:55.779Z,93977.08
2018-12-11T03:50:23.935Z,93976.24
2018-12-11T03:52:51.331Z,93972.43
2018-12-11T03:55:18.740Z,93979.16
2018-12-11T03:57:46.114Z,93975.40
2018-12-11T04:00:13.603Z,93968.70
2018-12-11T04:02:41.133Z,93968.67
2018-12-11T04:05:08.601Z,93973.34
2018-12-11T04:07:36.009Z,93972.09
2018-12-11T04:10:04.387Z,93972.04
2018-12-11T04:12:32.312Z,93966.57
2018-12-11T04:14:59.732Z,93973.72
2018-12-11T04:17:27.177Z,93967.47
2018-12-11T04:19:54.560Z,93967.05
2018-12-11T04:22:21.916Z,93970.77
2018-12-11T04:24:49.345Z,93961.55
2018-12-11T04:27:16.855Z,93962.38
2018-12-11T04:29:44.345Z,93963.21
2018-12-11T04:32:11.701Z,93964.05
2018-12-11T04:34:39.124Z,93955.70
2018-12-11T04:37:06.500Z,93963.67
2018-12-11T04:39:34.405Z,93967.91
2018-12-11T04:42:01.811Z,93958.62
2018-12-11T04:44:29.292Z,93955.70
2018-12-11T04:47:07.167Z,93961.11
2018-12-11T04:49:35.659Z,93950.63
2018-12-11T04:52:03.144Z,93960.25
2018-12-11T04:54:30.492Z,93964.08
2018-12-11T04:56:57.985Z,93964.50
2018-12-11T04:59:25.390Z,93956.95
2018-12-11T05:01:52.874Z,93962.00
2018-12-11T05:04:20.195Z,93963.73
2018-12-11T05:06:47.557Z,93964.55
2018-12-11T05:09:14.918Z,93961.53
2018-12-11T05:11:42.880Z,93967.39
2018-12-11T05:14:10.270Z,93965.33
2018-12-11T05:16:38.953Z,93964.89
2018-12-11T05:19:06.337Z,93965.34
2018-12-11T05:21:33.772Z,93961.23
2018-12-11T05:24:01.141Z,93959.13
2018-12-11T05:26:28.584Z,93972.14
2018-12-11T05:28:55.979Z,93972.59
2018-12-11T05:31:23.371Z,93967.58
2018-12-11T05:33:50.940Z,93970.95
2018-12-11T05:36:18.365Z,93972.16
2018-12-11T05:38:45.825Z,93967.09
2018-12-11T05:41:13.228Z,93966.22
2018-12-11T05:43:40.680Z,93959.08
2018-12-11T05:46:08.047Z,93969.56
2018-12-11T05:48:35.430Z,93966.67
2018-12-11T05:51:02.796Z,93966.25
2018-12-11T05:53:30.244Z,93968.34
2018-12-11T05:55:57.623Z,93974.23
2018-12-11T05:58:25.017Z,93973.79
2018-12-11T06:00:52.975Z,93976.31
2018-12-11T06:03:20.355Z,93971.72
2018-12-11T06:05:49.031Z,93972.14
2018-12-11T06:08:16.450Z,93974.27
2018-12-11T06:13:22.632Z,93976.76
2018-12-11T06:15:50.046Z,93973.81
2018-12-11T06:18:17.386Z,93982.63
2018-12-11T06:20:44.795Z,93978.84
2018-12-11T06:23:12.164Z,93976.73
2018-12-11T06:25:39.579Z,93980.47
2018-12-11T06:28:06.980Z,93978.83
2018-12-11T06:30:34.360Z,93993.95
2018-12-11T06:33:01.721Z,93989.30
2018-12-11T06:35:29.239Z,93991.81
2018-12-11T06:37:56.726Z,93991.84
2018-12-11T06:40:24.116Z,93998.99
2018-12-11T06:42:51.503Z,94006.86
2018-12-11T06:45:19.796Z,93998.94
2018-12-11T06:47:47.156Z,94001.87
2018-12-11T06:50:14.546Z,94000.67
2018-12-11T06:52:41.941Z,93995.20
2018-12-11T06:55:09.387Z,93996.07
2018-12-11T06:57:36.844Z,93998.98
2018-12-11T07:00:04.703Z,94002.32
2018-12-11T07:02:32.091Z,94008.18
2018-12-11T07:05:00.149Z,94007.81
2018-12-11T07:07:27.556Z,94008.71
2018-12-11T07:09:54.966Z,94004.08
2018-12-11T07:12:22.355Z,94007.84
2018-12-11T07:14:49.781Z,94004.05
2018-12-11T07:17:17.186Z,94002.43
2018-12-11T07:19:44.582Z,94005.77
2018-12-11T07:22:12.635Z,94009.07
2018-12-11T07:24:40.013Z,94007.36
2018-12-11T07:27:07.479Z,94008.66
2018-12-11T07:29:34.907Z,94007.36
2018-12-11T07:32:02.694Z,94004.91
2018-12-11T07:34:30.839Z,94006.55
2018-12-11T07:36:58.280Z,94005.29
2018-12-11T07:39:25.669Z,94007.84
2018-12-11T07:41:53.083Z,94009.95
2018-12-11T07:44:20.483Z,94020.42
2018-12-11T07:46:47.880Z,94019.16
2018-12-11T07:49:16.347Z,94020.45
2018-12-11T07:51:43.795Z,94019.24
2018-12-11T07:54:11.269Z,94016.27
2018-12-11T07:56:38.631Z,94017.92
2018-12-11T07:59:06.023Z,94025.11
2018-12-11T08:01:33.613Z,94024.23
2018-12-11T08:04:01.067Z,94025.55
2018-12-11T08:06:28.432Z,94021.73
2018-12-11T08:08:56.794Z,94029.33
2018-12-11T08:11:24.294Z,94023.02
2018-12-11T08:13:51.668Z,94026.80
2018-12-11T08:18:58.264Z,94013.80
2018-12-11T08:21:25.877Z,94021.73
2018-12-11T08:23:53.305Z,94016.30
2018-12-11T08:26:20.778Z,94018.37
2018-12-11T08:28:48.109Z,94024.70
2018-12-11T08:31:15.488Z,94019.27
2018-12-11T08:33:42.861Z,94027.65
2018-12-11T08:36:10.230Z,94019.66
2018-12-11T08:38:37.585Z,94024.77
2018-12-11T08:41:05.025Z,94014.30
2018-12-11T08:43:32.390Z,94025.23
2018-12-11T08:45:59.786Z,94026.46
2018-12-11T08:48:27.177Z,94023.55
2018-12-11T08:50:54.573Z,94017.66
2018-12-11T08:53:21.957Z,94023.55
2018-12-11T08:55:49.379Z,94019.39
2018-12-11T08:58:16.723Z,94023.17
2018-12-11T09:00:44.113Z,94024.06
2018-12-11T09:03:11.514Z,94020.27
2018-12-11T09:05:38.909Z,94026.58
2018-12-11T09:08:06.324Z,94017.34
2018-12-11T09:10:33.664Z,94025.39
2018-12-11T09:13:01.056Z,94022.45
2018-12-11T09:15:28.441Z,94027.88
2018-12-11T09:17:55.813Z,94029.97
2018-12-11T09:20:23.203Z,94036.33
2018-12-11T09:22:50.609Z,94036.74
2018-12-11T09:25:17.983Z,94035.48
2018-12-11T09:27:45.439Z,94030.02
2018-12-11T09:30:12.890Z,94030.86
2018-12-11T09:32:40.291Z,94032.16
2018-12-11T09:35:07.700Z,94033.86
2018-12-11T09:37:35.113Z,94032.25
2018-12-11T09:40:03.225Z,94031.05
2018-12-11T09:42:30.619Z,94033.55
2018-12-11T09:44:58.032Z,94031.00
2018-12-11T09:47:25.419Z,94034.44
2018-12-11T09:49:52.781Z,94024.82
2018-12-11T09:52:20.144Z,94027.77
2018-12-11T09:54:47.685Z,94020.17
2018-12-11T09:57:15.059Z,94031.50
2018-12-11T09:59:42.445Z,94025.58
2018-12-11T10:02:09.812Z,94025.97
2018-12-11T10:04:37.216Z,94028.09
2018-12-11T10:07:04.581Z,94028.95
2018-12-11T10:09:32.004Z,94022.59
2018-12-11T10:11:59.388Z,94028.48
2018-12-11T10:14:26.779Z,94029.30
2018-12-11T10:16:54.165Z,94019.63
2018-12-11T10:19:21.513Z,94023.86
2018-12-11T10:24:27.608Z,94020.41
2018-12-11T10:26:55.024Z,94020.81
2018-12-11T10:29:22.530Z,94020.39
2018-12-11T10:31:49.958Z,94011.59
2018-12-11T10:34:17.819Z,94024.22
2018-12-11T10:36:45.215Z,94020.45
2018-12-11T10:39:12.553Z,94019.19
2018-12-11T10:41:39.984Z,94018.78
2018-12-11T10:44:07.320Z,94013.75
2018-12-11T10:46:34.696Z,94015.88
2018-12-11T10:49:02.064Z,94022.19
2018-12-11T10:51:29.423Z,94020.48
2018-12-11T10:53:56.770Z,94010.39
2018-12-11T10:56:24.172Z,94012.08
2018-12-11T10:58:51.524Z,94006.16
2018-12-11T11:01:21.390Z,94004.49
2018-12-11T11:03:48.760Z,94003.25
2018-12-11T11:06:16.141Z,93999.92
2018-12-11T11:08:43.490Z,93995.31
2018-12-11T11:11:11.030Z,93991.52
2018-12-11T11:13:38.513Z,93998.63
2018-12-11T11:16:10.535Z,94000.77
2018-12-11T11:18:37.932Z,93997.81
2018-12-11T11:21:05.323Z,94004.11
2018-12-11T11:23:32.714Z,93994.83
2018-12-11T11:26:00.064Z,93994.83
2018-12-11T11:28:27.454Z,93985.20
2018-12-11T11:30:54.862Z,93978.45
2018-12-11T11:33:22.309Z,93979.76
2018-12-11T11:35:49.702Z,93981.84
2018-12-11T11:38:17.059Z,93975.55
2018-12-11T11:40:44.406Z,93970.96
2018-12-11T11:43:11.815Z,93966.78
2018-12-11T11:45:39.155Z,93970.58
2018-12-11T11:48:06.530Z,93969.30
2018-12-11T11:50:34.174Z,93966.75
2018-12-11T11:53:01.591Z,93963.77
2018-12-11T11:55:28.992Z,93965.42
2018-12-11T11:57:56.361Z,93965.05
2018-12-11T12:00:23.742Z,93960.80
2018-12-11T12:02:51.126Z,93959.58
2018-12-11T12:05:18.477Z,93962.94
2018-12-11T12:07:45.847Z,93960.41
2018-12-11T12:10:13.234Z,93960.86
2018-12-11T12:12:40.571Z,93958.31
2018-12-11T12:15:08.856Z,93955.75
2018-12-11T12:17:36.261Z,93959.98
2018-12-11T12:20:05.206Z,93957.05
2018-12-11T12:22:32.562Z,93951.12
2018-12-11T12:24:59.922Z,93963.77
2018-12-11T12:27:27.287Z,93959.14
2018-12-11T12:29:54.685Z,93961.23
2018-12-11T12:32:22.055Z,93962.89
2018-12-11T12:34:49.446Z,93956.57
2018-12-11T12:37:16.836Z,93955.72
2018-12-11T12:39:44.242Z,93946.87
2018-12-11T12:42:11.635Z,93946.88
2018-12-11T12:44:39.095Z,93944.34
2018-12-11T12:47:06.542Z,93949.05
2018-12-11T12:49:33.889Z,93944.84
2018-12-11T12:52:01.257Z,93947.80
2018-12-11T12:54:28.645Z,93948.23
2018-12-11T12:56:56.050Z,93945.69
2018-12-11T12:59:23.416Z,93950.30
2018-12-11T13:01:50.824Z,93942.70
2018-12-11T13:04:18.207Z,93943.16
2018-12-11T13:06:45.837Z,93945.72
2018-12-11T13:09:13.331Z,93938.59
2018-12-11T13:11:40.725Z,93940.70
2018-12-11T13:14:08.055Z,93938.61
2018-12-11T13:16:35.443Z,93936.09
2018-12-11T13:19:02.779Z,93934.83
2018-12-11T13:21:30.187Z,93934.00
2018-12-11T13:23:57.542Z,93943.25
2018-12-11T13:26:24.914Z,93943.27
2018-12-11T13:28:52.316Z,93939.48
2018-12-11T13:31:19.705Z,93940.75
2018-12-11T13:33:47.070Z,93941.97
2018-12-11T13:36:14.472Z,93945.33
2018-12-11T13:38:41.954Z,93946.55
2018-12-11T13:41:09.348Z,93949.05
2018-12-11T13:43:36.936Z,93938.56
2018-12-11T13:46:04.274Z,93944.04
2018-12-11T13:48:32.020Z,93941.92
2018-12-11T13:50:59.486Z,93944.91
2018-12-11T13:53:27.036Z,93937.35
2018-12-11T13:55:54.414Z,93943.21
2018-12-11T13:58:21.804Z,93948.25
2018-12-11T14:00:49.227Z,93948.24
2018-12-11T14:03:16.580Z,93942.36
2018-12-11T14:05:43.934Z,93949.92
2018-12-11T14:08:11.293Z,93947.39
2018-12-11T14:10:38.801Z,93955.39
2018-12-11T14:13:06.202Z,93953.70
2018-12-11T14:15:33.521Z,93947.83
2018-12-11T14:18:00.927Z,93956.25
2018-12-11T14:20:28.344Z,93953.31
2018-12-11T14:22:55.738Z,93954.16
2018-12-11T14:25:23.155Z,93954.98
2018-12-11T14:27:50.570Z,93956.22
2018-12-11T14:30:17.960Z,93956.66
2018-12-11T14:32:45.364Z,93953.30
2018-12-11T14:35:12.770Z,93954.13
2018-12-11T14:37:40.201Z,93959.14
2018-12-11T14:40:07.576Z,93953.67
2018-12-11T14:42:34.993Z,93953.30
2018-12-11T14:45:02.399Z,93945.69
2018-12-11T14:47:29.782Z,93944.39
2018-12-11T14:49:57.280Z,93954.92
2018-12-11T14:52:24.656Z,93958.71
2018-12-11T14:54:52.026Z,93958.69
2018-12-11T14:57:19.852Z,93962.48
2018-12-11T14:59:47.261Z,93962.91
2018-12-11T15:02:14.859Z,93961.62
2018-12-11T15:04:42.326Z,93964.17
2018-12-11T15:07:09.652Z,93955.30
2018-12-11T15:09:43.467Z,93962.02
2018-12-11T15:12:11.323Z,93960.30
2018-12-11T15:14:38.719Z,93962.39
2018-12-11T15:17:06.136Z,93959.02
2018-12-11T15:19:33.510Z,93962.38
2018-12-11T15:22:00.862Z,93959.44
2018-12-11T15:24:28.273Z,93958.16
2018-12-11T15:26:55.612Z,93959.39
2018-12-11T15:29:23.055Z,93958.13
2018-12-11T15:31:50.430Z,93961.86
2018-12-11T15:34:17.926Z,93952.64
2018-12-11T15:36:45.323Z,93954.69
2018-12-11T15:39:12.695Z,93957.17
2018-12-11T15:41:40.952Z,93954.63
2018-12-11T15:44:08.340Z,93949.61
2018-12-11T15:46:36.095Z,93948.78
2018-12-11T15:49:04.168Z,93950.86
2018-12-11T15:51:31.732Z,93951.25
2018-12-11T15:53:59.322Z,93948.72
2018-12-11T15:56:26.874Z,93951.20
2018-12-11T15:58:54.250Z,93949.89
2018-12-11T16:01:21.710Z,93961.62
2018-12-11T16:03:49.229Z,93963.67
2018-12-11T16:06:16.637Z,93971.27
2018-12-11T16:08:44.031Z,93965.86
2018-12-11T16:11:11.570Z,93967.06
2018-12-11T16:13:38.945Z,93970.42
2018-12-11T16:16:06.377Z,93969.64
2018-12-11T16:18:34.550Z,93972.55
2018-12-11T16:21:01.978Z,93973.42
2018-12-11T16:23:29.312Z,93973.81
2018-12-11T16:25:56.881Z,93970.03
2018-12-11T16:28:24.293Z,93972.59
2018-12-11T16:30:52.403Z,93974.33
2018-12-11T16:33:19.756Z,93965.38
2018-12-11T16:35:47.105Z,93969.19
2018-12-11T16:38:14.518Z,93970.85
2018-12-11T16:40:41.901Z,93972.41
2018-12-11T16:43:09.313Z,93969.94
2018-12-11T16:45:36.671Z,93977.05
2018-12-11T16:48:04.060Z,93974.91
2018-12-11T16:50:31.461Z,93972.41
2018-12-11T16:52:58.889Z,93976.47
2018-12-11T16:55:26.294Z,93980.25
2018-12-11T16:57:53.689Z,93974.77
2018-12-11T17:00:21.156Z,93975.99
2018-12-11T17:02:48.547Z,93978.13
2018-12-11T17:05:15.962Z,93982.14
2018-12-11T17:07:43.355Z,93977.46
2018-12-11T17:10:10.762Z,93976.62
2018-12-11T17:12:38.413Z,93982.44
2018-12-11T17:15:09.328Z,93987.37
2018-12-11T17:17:36.738Z,93985.66
2018-12-11T17:20:04.574Z,93992.12
2018-12-11T17:22:31.947Z,93988.05
2018-12-11T17:24:59.339Z,93989.77
2018-12-11T17:27:26.832Z,93989.34
2018-12-11T17:29:54.239Z,94002.81
2018-12-11T17:32:21.659Z,93999.03
2018-12-11T17:34:49.113Z,94000.66
2018-12-11T17:37:16.569Z,94003.23
2018-12-11T17:39:43.982Z,94004.56
2018-12-11T17:42:11.457Z,94008.46
2018-12-11T17:44:38.825Z,94006.42
2018-12-11T17:47:06.249Z,94011.91
2018-12-11T17:49:33.639Z,94005.58
2018-12-11T17:52:01.013Z,94006.55
2018-12-11T17:54:28.405Z,94006.89
2018-12-11T17:56:55.981Z,93997.25
2018-12-11T17:59:23.374Z,93999.35
2018-12-11T18:01:54.834Z,93994.67
2018-12-11T18:04:22.230Z,93999.86
2018-12-11T18:06:49.664Z,94003.24
2018-12-11T18:09:17.083Z,93996.41
2018-12-11T18:11:44.442Z,94001.38
2018-12-11T18:14:11.883Z,93999.75
2018-12-11T18:16:39.305Z,93995.55
2018-12-11T18:19:06.698Z,94000.09
2018-12-11T18:21:34.218Z,93997.95
2018-12-11T18:24:01.660Z,94000.00
2018-12-11T18:26:29.073Z,94009.21
2018-12-11T18:28:56.490Z,94003.75
2018-12-11T18:31:23.885Z,94004.20
2018-12-11T18:33:51.379Z,94005.52
2018-12-11T18:36:18.799Z,94003.33
2018-12-11T18:38:46.204Z,94008.28
2018-12-11T18:41:13.605Z,94000.75
2018-12-11T18:43:41.085Z,93999.42
2018-12-11T18:46:08.534Z,94000.63
2018-12-11T18:48:36.006Z,94003.49
2018-12-11T18:51:03.698Z,94003.46
2018-12-11T18:53:31.059Z,94001.43
2018-12-11T18:55:58.499Z,94001.84
2018-12-11T18:58:25.889Z,94003.17
2018-12-11T19:00:53.332Z,94003.17
2018-12-11T19:03:20.741Z,94003.11
2018-12-11T19:05:48.184Z,93994.19
2018-12-11T19:08:15.589Z,93999.27
2018-12-11T19:10:42.981Z,93997.87
2018-12-11T19:13:10.350Z,93999.47
2018-12-11T19:15:37.776Z,93997.69
2018-12-11T19:18:05.275Z,93997.23
2018-12-11T19:20:32.800Z,94002.23
2018-12-11T19:24:17.515Z,93999.67
2018-12-11T19:26:44.990Z,93996.28
2018-12-11T19:29:12.415Z,93996.31
2018-12-11T19:31:39.875Z,93993.83
2018-12-11T19:34:07.359Z,93996.01
2018-12-11T19:36:34.820Z,93989.33
2018-12-11T19:39:04.320Z,93987.66
2018-12-11T19:41:31.817Z,93991.47
2018-12-11T19:43:59.254Z,93987.65
2018-12-11T19:46:26.735Z,93986.88
2018-12-11T19:48:54.275Z,93988.11
2018-12-11T19:51:21.698Z,93985.66
2018-12-11T19:53:49.176Z,93984.33
2018-12-11T19:56:16.876Z,93984.72
2018-12-11T20:01:17.987Z,93974.70
2018-12-11T20:03:45.418Z,93976.48
2018-12-11T20:06:12.847Z,93973.13
2018-12-11T20:08:40.288Z,93972.74
2018-12-11T20:11:07.674Z,93976.59
2018-12-11T20:13:35.114Z,93970.35
2018-12-11T20:16:02.548Z,93972.94
2018-12-11T20:18:29.907Z,93973.86
2018-12-11T20:20:57.362Z,93975.09
2018-12-11T20:23:24.796Z,93965.02
2018-12-11T20:25:52.202Z,93968.02
2018-12-11T20:28:19.628Z,93967.53
2018-12-11T20:30:47.037Z,93967.89
2018-12-11T20:33:14.430Z,93969.19
2018-12-11T20:35:41.832Z,93973.50
2018-12-11T20:38:09.292Z,93968.07
2018-12-11T20:40:36.765Z,93968.84
2018-12-11T20:43:04.443Z,93971.37
2018-12-11T20:45:31.825Z,93969.24
2018-12-11T20:47:59.188Z,93967.11
2018-12-11T20:50:26.617Z,93962.08
2018-12-11T20:52:54.046Z,93964.17
2018-12-11T20:55:21.415Z,93967.59
2018-12-11T20:57:48.831Z,93967.67
2018-12-11T21:00:16.278Z,93966.08
2018-12-11T21:02:43.722Z,93968.20
2018-12-11T21:05:11.093Z,93967.41
2018-12-11T21:07:38.553Z,93969.07
2018-12-11T21:10:08.748Z,93962.81
2018-12-11T21:12:36.146Z,93961.50
2018-12-11T21:15:04.398Z,93961.92
2018-12-11T21:17:31.891Z,93963.19
2018-12-11T21:19:59.291Z,93962.77
2018-12-11T21:22:26.743Z,93967.76
2018-12-11T21:24:54.106Z,93972.86
2018-12-11T21:27:21.505Z,93976.58
2018-12-11T21:29:48.929Z,93969.88
2018-12-11T21:32:16.352Z,93972.45
2018-12-11T21:34:43.799Z,93966.97
2018-12-11T21:37:11.166Z,93968.66
2018-12-11T21:39:38.573Z,93969.38
2018-12-11T21:42:06.078Z,93965.97
2018-12-11T21:44:33.519Z,93963.47
2018-12-11T21:47:00.930Z,93961.80
2018-12-11T21:49:28.300Z,93963.48
2018-12-11T21:51:55.674Z,93963.42
2018-12-11T21:54:23.100Z,93963.45
2018-12-11T21:56:50.719Z,93964.23
2018-12-11T21:59:18.442Z,93952.08
2018-12-11T22:01:45.839Z,93950.77
2018-12-11T22:04:13.521Z,93951.58
2018-12-11T22:06:40.884Z,93947.44
2018-12-11T22:09:09.224Z,93954.97
2018-12-11T22:11:36.660Z,93949.47
2018-12-11T22:14:04.143Z,93961.62
2018-12-11T22:16:31.922Z,93952.84
2018-12-11T22:18:59.522Z,93958.38
2018-12-11T22:21:26.943Z,93961.27
2018-12-11T22:23:54.728Z,93960.88
2018-12-11T22:26:23.952Z,93960.00
2018-12-11T22:28:51.340Z,93957.91
2018-12-11T22:31:18.700Z,93962.89
2018-12-11T22:33:46.048Z,93964.95
2018-12-11T22:36:13.983Z,93959.47
2018-12-11T22:38:41.356Z,93967.44
2018-12-11T22:41:09.112Z,93964.02
2018-12-11T22:43:36.888Z,93968.91
2018-12-11T22:46:04.703Z,93973.38
2018-12-11T22:48:32.452Z,93970.90
2018-12-11T22:51:00.134Z,93973.94
2018-12-11T22:53:27.487Z,93974.48
2018-12-11T22:55:54.863Z,93970.35
2018-12-11T22:58:22.297Z,93979.14
2018-12-11T23:00:49.809Z,93979.20
2018-12-11T23:03:17.352Z,93985.56
2018-12-11T23:05:44.771Z,93983.50
2018-12-11T23:08:12.107Z,93979.23
2018-12-11T23:10:39.613Z,93980.44
2018-12-11T23:13:07.023Z,93983.76
2018-12-11T23:15:34.368Z,93990.48
2018-12-11T23:18:01.731Z,93991.80
2018-12-11T23:20:29.088Z,93985.89
2018-12-11T23:22:56.548Z,93985.41
2018-12-11T23:25:23.928Z,93982.11
2018-12-11T23:27:51.298Z,93980.85
2018-12-11T23:30:18.687Z,93987.57
2018-12-11T23:32:46.197Z,93986.80
2018-12-11T23:35:13.758Z,93988.95
2018-12-11T23:37:41.121Z,93985.92
2018-12-11T23:40:08.527Z,93989.25
2018-12-11T23:42:35.927Z,93976.33
2018-12-11T23:45:03.737Z,93973.45
2018-12-11T23:50:11.134Z,93979.30
2018-12-11T23:52:38.519Z,93973.02
2018-12-11T23:55:06.038Z,93972.06
2018-12-11T23:57:33.378Z,93967.44
